sensor_id;sensor_type;location;lat;lon;timestamp;P1;durP1;ratioP1;P2;durP2;ratioP2
16922;SDS011;8578;50.938;13.556;2023-08-17T00:02:12;9.50;;;7.67;;
16922;SDS011;8578;50.938;13.556;2023-08-17T00:04:41;9.50;;;7.50;;
16922;SDS011;8578;50.938;13.556;2023-08-17T00:07:09;11.63;;;7.13;;
16922;SDS011;8578;50.938;13.556;2023-08-17T00:09:38;9.60;;;8.53;;
16922;SDS011;8578;50.938;13.556;2023-08-17T00:12:06;8.70;;;7.90;;
16922;SDS011;8578;50.938;13.556;2023-08-17T00:14:33;11.03;;;8.47;;
16922;SDS011;8578;50.938;13.556;2023-08-17T00:17:02;14.70;;;8.17;;
16922;SDS011;8578;50.938;13.556;2023-08-17T00:19:29;11.10;;;7.60;;
16922;SDS011;8578;50.938;13.556;2023-08-17T00:21:58;10.20;;;7.90;;
16922;SDS011;8578;50.938;13.556;2023-08-17T00:24:25;12.87;;;7.67;;
16922;SDS011;8578;50.938;13.556;2023-08-17T00:26:54;11.37;;;7.77;;
16922;SDS011;8578;50.938;13.556;2023-08-17T00:29:23;10.73;;;7.53;;
16922;SDS011;8578;50.938;13.556;2023-08-17T00:31:51;12.67;;;7.67;;
16922;SDS011;8578;50.938;13.556;2023-08-17T00:34:19;9.60;;;7.77;;
16922;SDS011;8578;50.938;13.556;2023-08-17T00:36:46;11.67;;;7.70;;
16922;SDS011;8578;50.938;13.556;2023-08-17T00:39:14;13.03;;;8.00;;
16922;SDS011;8578;50.938;13.556;2023-08-17T00:41:41;13.07;;;7.50;;
16922;SDS011;8578;50.938;13.556;2023-08-17T00:44:11;10.97;;;7.87;;
16922;SDS011;8578;50.938;13.556;2023-08-17T00:46:39;14.83;;;8.03;;
16922;SDS011;8578;50.938;13.556;2023-08-17T00:49:06;10.50;;;7.57;;
16922;SDS011;8578;50.938;13.556;2023-08-17T00:51:34;20.40;;;10.43;;
16922;SDS011;8578;50.938;13.556;2023-08-17T00:54:02;12.90;;;7.97;;
16922;SDS011;8578;50.938;13.556;2023-08-17T00:56:30;16.27;;;8.43;;
16922;SDS011;8578;50.938;13.556;2023-08-17T00:58:58;13.10;;;8.27;;
16922;SDS011;8578;50.938;13.556;2023-08-17T01:01:29;14.30;;;8.93;;
16922;SDS011;8578;50.938;13.556;2023-08-17T01:03:57;13.33;;;9.23;;
16922;SDS011;8578;50.938;13.556;2023-08-17T01:06:26;15.10;;;8.80;;
16922;SDS011;8578;50.938;13.556;2023-08-17T01:08:54;11.87;;;8.43;;
16922;SDS011;8578;50.938;13.556;2023-08-17T01:11:24;17.80;;;9.23;;
16922;SDS011;8578;50.938;13.556;2023-08-17T01:13:55;10.50;;;8.03;;
16922;SDS011;8578;50.938;13.556;2023-08-17T01:16:24;16.43;;;7.70;;
16922;SDS011;8578;50.938;13.556;2023-08-17T01:18:54;12.43;;;7.83;;
16922;SDS011;8578;50.938;13.556;2023-08-17T01:21:24;12.37;;;7.50;;
16922;SDS011;8578;50.938;13.556;2023-08-17T01:23:57;17.70;;;7.63;;
16922;SDS011;8578;50.938;13.556;2023-08-17T01:26:26;13.10;;;7.40;;
16922;SDS011;8578;50.938;13.556;2023-08-17T01:28:53;9.50;;;6.67;;
16922;SDS011;8578;50.938;13.556;2023-08-17T01:31:23;11.83;;;7.03;;
16922;SDS011;8578;50.938;13.556;2023-08-17T01:33:54;15.23;;;7.10;;
16922;SDS011;8578;50.938;13.556;2023-08-17T01:36:22;14.97;;;7.93;;
16922;SDS011;8578;50.938;13.556;2023-08-17T01:38:53;11.33;;;7.90;;
16922;SDS011;8578;50.938;13.556;2023-08-17T01:41:23;10.57;;;7.77;;
16922;SDS011;8578;50.938;13.556;2023-08-17T01:43:52;11.13;;;7.57;;
16922;SDS011;8578;50.938;13.556;2023-08-17T01:46:20;17.00;;;7.90;;
16922;SDS011;8578;50.938;13.556;2023-08-17T01:48:48;13.83;;;8.37;;
16922;SDS011;8578;50.938;13.556;2023-08-17T01:51:17;20.30;;;7.83;;
16922;SDS011;8578;50.938;13.556;2023-08-17T01:53:45;14.57;;;8.13;;
16922;SDS011;8578;50.938;13.556;2023-08-17T01:56:14;21.23;;;7.77;;
16922;SDS011;8578;50.938;13.556;2023-08-17T01:58:44;14.77;;;7.27;;
16922;SDS011;8578;50.938;13.556;2023-08-17T02:01:12;19.63;;;7.87;;
16922;SDS011;8578;50.938;13.556;2023-08-17T02:03:39;11.97;;;7.43;;
16922;SDS011;8578;50.938;13.556;2023-08-17T02:06:09;16.60;;;7.90;;
16922;SDS011;8578;50.938;13.556;2023-08-17T02:08:37;14.97;;;7.03;;
16922;SDS011;8578;50.938;13.556;2023-08-17T02:11:04;12.20;;;7.90;;
16922;SDS011;8578;50.938;13.556;2023-08-17T02:13:33;13.73;;;8.73;;
16922;SDS011;8578;50.938;13.556;2023-08-17T02:16:02;9.53;;;7.83;;
16922;SDS011;8578;50.938;13.556;2023-08-17T02:18:30;17.10;;;8.93;;
16922;SDS011;8578;50.938;13.556;2023-08-17T02:21:01;11.63;;;8.93;;
16922;SDS011;8578;50.938;13.556;2023-08-17T02:23:28;12.57;;;8.90;;
16922;SDS011;8578;50.938;13.556;2023-08-17T02:25:57;12.80;;;8.63;;
16922;SDS011;8578;50.938;13.556;2023-08-17T02:28:24;10.30;;;8.50;;
16922;SDS011;8578;50.938;13.556;2023-08-17T02:30:56;17.00;;;8.03;;
16922;SDS011;8578;50.938;13.556;2023-08-17T02:33:26;14.07;;;7.80;;
16922;SDS011;8578;50.938;13.556;2023-08-17T02:35:54;12.17;;;8.43;;
16922;SDS011;8578;50.938;13.556;2023-08-17T02:38:22;11.50;;;8.80;;
16922;SDS011;8578;50.938;13.556;2023-08-17T02:40:50;16.43;;;8.30;;
16922;SDS011;8578;50.938;13.556;2023-08-17T02:43:18;13.67;;;9.03;;
16922;SDS011;8578;50.938;13.556;2023-08-17T02:45:46;13.80;;;8.07;;
16922;SDS011;8578;50.938;13.556;2023-08-17T02:48:14;11.47;;;8.60;;
16922;SDS011;8578;50.938;13.556;2023-08-17T02:50:42;12.73;;;8.43;;
16922;SDS011;8578;50.938;13.556;2023-08-17T02:53:10;18.17;;;8.53;;
16922;SDS011;8578;50.938;13.556;2023-08-17T02:55:37;12.80;;;7.80;;
16922;SDS011;8578;50.938;13.556;2023-08-17T02:58:07;10.00;;;8.00;;
16922;SDS011;8578;50.938;13.556;2023-08-17T03:00:35;11.80;;;8.40;;
16922;SDS011;8578;50.938;13.556;2023-08-17T03:03:03;12.03;;;8.00;;
16922;SDS011;8578;50.938;13.556;2023-08-17T03:05:33;10.73;;;8.60;;
16922;SDS011;8578;50.938;13.556;2023-08-17T03:08:00;13.40;;;7.83;;
16922;SDS011;8578;50.938;13.556;2023-08-17T03:10:29;14.80;;;7.80;;
16922;SDS011;8578;50.938;13.556;2023-08-17T03:12:56;15.17;;;8.37;;
16922;SDS011;8578;50.938;13.556;2023-08-17T03:15:24;11.83;;;8.10;;
16922;SDS011;8578;50.938;13.556;2023-08-17T03:17:51;12.80;;;7.87;;
16922;SDS011;8578;50.938;13.556;2023-08-17T03:20:19;11.10;;;8.33;;
16922;SDS011;8578;50.938;13.556;2023-08-17T03:22:48;14.70;;;8.33;;
16922;SDS011;8578;50.938;13.556;2023-08-17T03:25:16;17.63;;;8.43;;
16922;SDS011;8578;50.938;13.556;2023-08-17T03:27:46;15.27;;;7.87;;
16922;SDS011;8578;50.938;13.556;2023-08-17T03:30:13;13.27;;;7.97;;
16922;SDS011;8578;50.938;13.556;2023-08-17T03:32:41;13.60;;;8.27;;
16922;SDS011;8578;50.938;13.556;2023-08-17T03:35:08;11.57;;;8.63;;
16922;SDS011;8578;50.938;13.556;2023-08-17T03:37:36;17.50;;;8.60;;
16922;SDS011;8578;50.938;13.556;2023-08-17T03:40:06;17.30;;;7.87;;
16922;SDS011;8578;50.938;13.556;2023-08-17T03:42:34;14.93;;;8.00;;
16922;SDS011;8578;50.938;13.556;2023-08-17T03:45:02;12.03;;;8.00;;
16922;SDS011;8578;50.938;13.556;2023-08-17T03:47:32;12.53;;;8.43;;
16922;SDS011;8578;50.938;13.556;2023-08-17T03:50:00;12.63;;;8.33;;
16922;SDS011;8578;50.938;13.556;2023-08-17T03:52:28;11.27;;;8.87;;
16922;SDS011;8578;50.938;13.556;2023-08-17T03:54:57;12.53;;;8.90;;
16922;SDS011;8578;50.938;13.556;2023-08-17T03:57:27;11.27;;;8.53;;
16922;SDS011;8578;50.938;13.556;2023-08-17T03:59:55;13.17;;;8.23;;
16922;SDS011;8578;50.938;13.556;2023-08-17T04:02:23;16.17;;;9.10;;
16922;SDS011;8578;50.938;13.556;2023-08-17T04:04:50;18.43;;;9.97;;
16922;SDS011;8578;50.938;13.556;2023-08-17T04:07:20;19.77;;;8.90;;
16922;SDS011;8578;50.938;13.556;2023-08-17T04:09:48;12.53;;;9.83;;
16922;SDS011;8578;50.938;13.556;2023-08-17T04:12:15;12.57;;;9.63;;
16922;SDS011;8578;50.938;13.556;2023-08-17T04:14:45;12.23;;;9.67;;
16922;SDS011;8578;50.938;13.556;2023-08-17T04:17:12;17.23;;;9.57;;
16922;SDS011;8578;50.938;13.556;2023-08-17T04:19:41;17.03;;;9.47;;
16922;SDS011;8578;50.938;13.556;2023-08-17T04:22:08;15.93;;;9.40;;
16922;SDS011;8578;50.938;13.556;2023-08-17T04:24:37;18.20;;;8.80;;
16922;SDS011;8578;50.938;13.556;2023-08-17T04:27:04;12.13;;;8.63;;
16922;SDS011;8578;50.938;13.556;2023-08-17T04:29:32;12.60;;;9.20;;
16922;SDS011;8578;50.938;13.556;2023-08-17T04:32:03;11.50;;;9.20;;
16922;SDS011;8578;50.938;13.556;2023-08-17T04:34:32;11.20;;;8.73;;
16922;SDS011;8578;50.938;13.556;2023-08-17T04:37:00;13.90;;;8.30;;
16922;SDS011;8578;50.938;13.556;2023-08-17T04:39:28;14.27;;;8.43;;
16922;SDS011;8578;50.938;13.556;2023-08-17T04:41:56;13.23;;;8.87;;
16922;SDS011;8578;50.938;13.556;2023-08-17T04:44:30;12.83;;;9.67;;
16922;SDS011;8578;50.938;13.556;2023-08-17T04:46:59;18.53;;;10.33;;
16922;SDS011;8578;50.938;13.556;2023-08-17T04:49:29;16.27;;;10.53;;
16922;SDS011;8578;50.938;13.556;2023-08-17T04:51:56;13.50;;;9.13;;
16922;SDS011;8578;50.938;13.556;2023-08-17T04:54:24;13.17;;;9.03;;
16922;SDS011;8578;50.938;13.556;2023-08-17T04:56:52;13.90;;;9.30;;
16922;SDS011;8578;50.938;13.556;2023-08-17T04:59:19;10.60;;;8.70;;
16922;SDS011;8578;50.938;13.556;2023-08-17T05:01:47;16.23;;;11.03;;
16922;SDS011;8578;50.938;13.556;2023-08-17T05:04:15;13.13;;;10.27;;
16922;SDS011;8578;50.938;13.556;2023-08-17T05:06:44;11.93;;;9.23;;
16922;SDS011;8578;50.938;13.556;2023-08-17T05:09:12;15.37;;;8.47;;
16922;SDS011;8578;50.938;13.556;2023-08-17T05:11:40;11.13;;;8.97;;
16922;SDS011;8578;50.938;13.556;2023-08-17T05:14:07;13.10;;;8.80;;
16922;SDS011;8578;50.938;13.556;2023-08-17T05:16:35;10.33;;;7.97;;
16922;SDS011;8578;50.938;13.556;2023-08-17T05:19:03;12.23;;;8.53;;
16922;SDS011;8578;50.938;13.556;2023-08-17T05:21:31;11.40;;;8.63;;
16922;SDS011;8578;50.938;13.556;2023-08-17T05:24:00;12.93;;;8.87;;
16922;SDS011;8578;50.938;13.556;2023-08-17T05:26:28;16.07;;;10.93;;
16922;SDS011;8578;50.938;13.556;2023-08-17T05:28:55;15.90;;;11.40;;
16922;SDS011;8578;50.938;13.556;2023-08-17T05:31:24;17.93;;;12.60;;
16922;SDS011;8578;50.938;13.556;2023-08-17T05:33:53;17.73;;;12.13;;
16922;SDS011;8578;50.938;13.556;2023-08-17T05:36:23;15.40;;;11.10;;
16922;SDS011;8578;50.938;13.556;2023-08-17T05:38:51;17.10;;;12.20;;
16922;SDS011;8578;50.938;13.556;2023-08-17T05:41:20;18.00;;;12.97;;
16922;SDS011;8578;50.938;13.556;2023-08-17T05:43:47;18.10;;;11.83;;
16922;SDS011;8578;50.938;13.556;2023-08-17T05:46:15;15.43;;;11.30;;
16922;SDS011;8578;50.938;13.556;2023-08-17T05:48:43;17.97;;;12.63;;
16922;SDS011;8578;50.938;13.556;2023-08-17T05:51:11;19.60;;;13.17;;
16922;SDS011;8578;50.938;13.556;2023-08-17T05:53:38;20.93;;;14.10;;
16922;SDS011;8578;50.938;13.556;2023-08-17T05:56:06;22.70;;;15.53;;
16922;SDS011;8578;50.938;13.556;2023-08-17T05:58:35;23.73;;;16.43;;
16922;SDS011;8578;50.938;13.556;2023-08-17T06:01:05;31.67;;;18.60;;
16922;SDS011;8578;50.938;13.556;2023-08-17T06:03:34;28.30;;;19.10;;
16922;SDS011;8578;50.938;13.556;2023-08-17T06:06:01;24.80;;;17.43;;
16922;SDS011;8578;50.938;13.556;2023-08-17T06:08:29;24.97;;;18.10;;
16922;SDS011;8578;50.938;13.556;2023-08-17T06:10:57;25.97;;;18.83;;
16922;SDS011;8578;50.938;13.556;2023-08-17T06:13:25;25.30;;;17.43;;
16922;SDS011;8578;50.938;13.556;2023-08-17T06:15:54;25.23;;;18.13;;
16922;SDS011;8578;50.938;13.556;2023-08-17T06:18:24;26.43;;;17.77;;
16922;SDS011;8578;50.938;13.556;2023-08-17T06:20:52;24.03;;;17.83;;
16922;SDS011;8578;50.938;13.556;2023-08-17T06:23:20;22.63;;;16.73;;
16922;SDS011;8578;50.938;13.556;2023-08-17T06:25:48;22.77;;;16.77;;
16922;SDS011;8578;50.938;13.556;2023-08-17T06:28:16;23.37;;;17.83;;
16922;SDS011;8578;50.938;13.556;2023-08-17T06:30:43;25.10;;;16.63;;
16922;SDS011;8578;50.938;13.556;2023-08-17T06:33:12;23.47;;;16.87;;
16922;SDS011;8578;50.938;13.556;2023-08-17T06:35:40;21.60;;;15.93;;
16922;SDS011;8578;50.938;13.556;2023-08-17T06:38:07;22.33;;;16.27;;
16922;SDS011;8578;50.938;13.556;2023-08-17T06:40:35;21.73;;;15.90;;
16922;SDS011;8578;50.938;13.556;2023-08-17T06:43:04;21.03;;;15.07;;
16922;SDS011;8578;50.938;13.556;2023-08-17T06:45:31;20.47;;;15.70;;
16922;SDS011;8578;50.938;13.556;2023-08-17T06:47:59;20.63;;;15.00;;
16922;SDS011;8578;50.938;13.556;2023-08-17T06:50:28;19.80;;;14.23;;
16922;SDS011;8578;50.938;13.556;2023-08-17T06:52:55;21.77;;;15.23;;
16922;SDS011;8578;50.938;13.556;2023-08-17T06:55:24;18.93;;;14.63;;
16922;SDS011;8578;50.938;13.556;2023-08-17T06:57:52;24.00;;;15.23;;
16922;SDS011;8578;50.938;13.556;2023-08-17T07:00:22;19.10;;;15.13;;
16922;SDS011;8578;50.938;13.556;2023-08-17T07:02:50;20.50;;;14.37;;
16922;SDS011;8578;50.938;13.556;2023-08-17T07:05:23;20.67;;;14.97;;
16922;SDS011;8578;50.938;13.556;2023-08-17T07:07:52;19.60;;;13.67;;
16922;SDS011;8578;50.938;13.556;2023-08-17T07:10:20;23.07;;;14.13;;
16922;SDS011;8578;50.938;13.556;2023-08-17T07:12:48;18.07;;;13.77;;
16922;SDS011;8578;50.938;13.556;2023-08-17T07:15:16;21.00;;;14.43;;
16922;SDS011;8578;50.938;13.556;2023-08-17T07:17:43;19.67;;;14.03;;
16922;SDS011;8578;50.938;13.556;2023-08-17T07:20:11;17.80;;;14.03;;
16922;SDS011;8578;50.938;13.556;2023-08-17T07:22:42;21.33;;;14.40;;
16922;SDS011;8578;50.938;13.556;2023-08-17T07:25:11;19.27;;;14.20;;
16922;SDS011;8578;50.938;13.556;2023-08-17T07:27:39;19.47;;;14.50;;
16922;SDS011;8578;50.938;13.556;2023-08-17T07:30:08;20.17;;;13.33;;
16922;SDS011;8578;50.938;13.556;2023-08-17T07:32:35;17.97;;;13.97;;
16922;SDS011;8578;50.938;13.556;2023-08-17T07:35:03;19.80;;;14.03;;
16922;SDS011;8578;50.938;13.556;2023-08-17T07:37:31;18.00;;;14.63;;
16922;SDS011;8578;50.938;13.556;2023-08-17T07:40:00;16.67;;;13.60;;
16922;SDS011;8578;50.938;13.556;2023-08-17T07:42:31;16.27;;;13.27;;
16922;SDS011;8578;50.938;13.556;2023-08-17T07:44:59;18.43;;;13.87;;
16922;SDS011;8578;50.938;13.556;2023-08-17T07:47:27;18.97;;;13.70;;
16922;SDS011;8578;50.938;13.556;2023-08-17T07:49:55;17.67;;;13.70;;
16922;SDS011;8578;50.938;13.556;2023-08-17T07:52:24;17.60;;;14.33;;
16922;SDS011;8578;50.938;13.556;2023-08-17T07:54:51;17.87;;;13.70;;
16922;SDS011;8578;50.938;13.556;2023-08-17T07:57:19;20.37;;;15.00;;
16922;SDS011;8578;50.938;13.556;2023-08-17T07:59:47;22.30;;;14.23;;
16922;SDS011;8578;50.938;13.556;2023-08-17T08:02:15;19.37;;;14.57;;
16922;SDS011;8578;50.938;13.556;2023-08-17T08:04:43;21.67;;;14.63;;
16922;SDS011;8578;50.938;13.556;2023-08-17T08:07:10;16.43;;;12.67;;
16922;SDS011;8578;50.938;13.556;2023-08-17T08:09:38;19.83;;;13.73;;
16922;SDS011;8578;50.938;13.556;2023-08-17T08:12:06;16.17;;;12.87;;
16922;SDS011;8578;50.938;13.556;2023-08-17T08:14:34;19.30;;;13.43;;
16922;SDS011;8578;50.938;13.556;2023-08-17T08:17:03;16.17;;;12.73;;
16922;SDS011;8578;50.938;13.556;2023-08-17T08:19:31;18.20;;;13.70;;
16922;SDS011;8578;50.938;13.556;2023-08-17T08:21:59;18.97;;;13.87;;
16922;SDS011;8578;50.938;13.556;2023-08-17T08:24:27;19.60;;;14.67;;
16922;SDS011;8578;50.938;13.556;2023-08-17T08:27:04;17.70;;;13.60;;
16922;SDS011;8578;50.938;13.556;2023-08-17T08:29:31;14.10;;;12.20;;
16922;SDS011;8578;50.938;13.556;2023-08-17T08:31:59;14.80;;;12.50;;
16922;SDS011;8578;50.938;13.556;2023-08-17T08:34:31;20.87;;;14.40;;
16922;SDS011;8578;50.938;13.556;2023-08-17T08:36:59;16.33;;;13.50;;
16922;SDS011;8578;50.938;13.556;2023-08-17T08:39:28;16.10;;;13.23;;
16922;SDS011;8578;50.938;13.556;2023-08-17T08:41:56;16.73;;;13.20;;
16922;SDS011;8578;50.938;13.556;2023-08-17T08:44:23;18.03;;;13.53;;
16922;SDS011;8578;50.938;13.556;2023-08-17T08:46:51;19.03;;;14.47;;
16922;SDS011;8578;50.938;13.556;2023-08-17T08:49:21;16.67;;;13.17;;
16922;SDS011;8578;50.938;13.556;2023-08-17T08:51:52;16.83;;;12.87;;
16922;SDS011;8578;50.938;13.556;2023-08-17T08:54:21;16.57;;;12.50;;
16922;SDS011;8578;50.938;13.556;2023-08-17T08:56:50;17.77;;;14.20;;
16922;SDS011;8578;50.938;13.556;2023-08-17T08:59:19;16.43;;;13.67;;
16922;SDS011;8578;50.938;13.556;2023-08-17T09:01:47;15.73;;;12.20;;
16922;SDS011;8578;50.938;13.556;2023-08-17T09:04:17;13.87;;;11.13;;
16922;SDS011;8578;50.938;13.556;2023-08-17T09:06:46;17.13;;;12.30;;
16922;SDS011;8578;50.938;13.556;2023-08-17T09:09:15;13.33;;;10.97;;
16922;SDS011;8578;50.938;13.556;2023-08-17T09:11:44;15.47;;;11.80;;
16922;SDS011;8578;50.938;13.556;2023-08-17T09:14:11;12.47;;;11.10;;
16922;SDS011;8578;50.938;13.556;2023-08-17T09:16:39;11.20;;;10.00;;
16922;SDS011;8578;50.938;13.556;2023-08-17T09:19:07;13.13;;;10.83;;
16922;SDS011;8578;50.938;13.556;2023-08-17T09:21:35;13.10;;;10.97;;
16922;SDS011;8578;50.938;13.556;2023-08-17T09:24:03;11.00;;;9.90;;
16922;SDS011;8578;50.938;13.556;2023-08-17T09:26:32;10.70;;;9.60;;
16922;SDS011;8578;50.938;13.556;2023-08-17T09:29:00;10.93;;;8.80;;
16922;SDS011;8578;50.938;13.556;2023-08-17T09:31:30;10.33;;;9.23;;
16922;SDS011;8578;50.938;13.556;2023-08-17T09:33:58;11.80;;;10.17;;
16922;SDS011;8578;50.938;13.556;2023-08-17T09:36:26;10.70;;;9.60;;
16922;SDS011;8578;50.938;13.556;2023-08-17T09:38:53;11.60;;;9.73;;
16922;SDS011;8578;50.938;13.556;2023-08-17T09:41:23;11.13;;;9.30;;
16922;SDS011;8578;50.938;13.556;2023-08-17T09:43:55;9.77;;;8.70;;
16922;SDS011;8578;50.938;13.556;2023-08-17T09:46:22;10.70;;;9.23;;
16922;SDS011;8578;50.938;13.556;2023-08-17T09:48:53;11.67;;;8.60;;
16922;SDS011;8578;50.938;13.556;2023-08-17T09:51:24;14.40;;;8.20;;
16922;SDS011;8578;50.938;13.556;2023-08-17T09:53:54;9.87;;;8.87;;
16922;SDS011;8578;50.938;13.556;2023-08-17T09:56:24;11.10;;;9.07;;
16922;SDS011;8578;50.938;13.556;2023-08-17T09:58:55;10.97;;;9.13;;
16922;SDS011;8578;50.938;13.556;2023-08-17T10:01:24;13.47;;;9.37;;
16922;SDS011;8578;50.938;13.556;2023-08-17T10:03:54;11.33;;;9.27;;
16922;SDS011;8578;50.938;13.556;2023-08-17T10:06:23;9.50;;;8.50;;
16922;SDS011;8578;50.938;13.556;2023-08-17T10:08:53;11.27;;;8.97;;
16922;SDS011;8578;50.938;13.556;2023-08-17T10:11:23;9.77;;;8.77;;
16922;SDS011;8578;50.938;13.556;2023-08-17T10:13:52;10.37;;;8.70;;
16922;SDS011;8578;50.938;13.556;2023-08-17T10:16:26;11.50;;;8.13;;
16922;SDS011;8578;50.938;13.556;2023-08-17T10:18:58;9.40;;;8.43;;
16922;SDS011;8578;50.938;13.556;2023-08-17T10:21:27;11.07;;;8.70;;
16922;SDS011;8578;50.938;13.556;2023-08-17T10:23:56;10.70;;;8.83;;
16922;SDS011;8578;50.938;13.556;2023-08-17T10:26:24;9.40;;;8.40;;
16922;SDS011;8578;50.938;13.556;2023-08-17T10:28:52;10.87;;;8.97;;
16922;SDS011;8578;50.938;13.556;2023-08-17T10:31:22;10.00;;;8.27;;
16922;SDS011;8578;50.938;13.556;2023-08-17T10:33:51;12.13;;;8.10;;
16922;SDS011;8578;50.938;13.556;2023-08-17T10:36:19;9.27;;;8.27;;
16922;SDS011;8578;50.938;13.556;2023-08-17T10:38:47;9.10;;;8.20;;
16922;SDS011;8578;50.938;13.556;2023-08-17T10:41:14;9.33;;;8.43;;
16922;SDS011;8578;50.938;13.556;2023-08-17T10:43:54;8.77;;;7.87;;
16922;SDS011;8578;50.938;13.556;2023-08-17T10:46:21;9.47;;;8.10;;
16922;SDS011;8578;50.938;13.556;2023-08-17T10:48:49;8.67;;;7.27;;
16922;SDS011;8578;50.938;13.556;2023-08-17T10:51:20;8.57;;;7.40;;
16922;SDS011;8578;50.938;13.556;2023-08-17T10:53:51;8.53;;;7.63;;
16922;SDS011;8578;50.938;13.556;2023-08-17T10:56:20;8.40;;;7.43;;
16922;SDS011;8578;50.938;13.556;2023-08-17T10:58:53;8.50;;;7.47;;
16922;SDS011;8578;50.938;13.556;2023-08-17T11:04:12;8.43;;;7.63;;
16922;SDS011;8578;50.938;13.556;2023-08-17T11:06:41;10.40;;;7.17;;
16922;SDS011;8578;50.938;13.556;2023-08-17T11:09:10;8.10;;;7.30;;
16922;SDS011;8578;50.938;13.556;2023-08-17T11:11:38;8.13;;;7.23;;
16922;SDS011;8578;50.938;13.556;2023-08-17T11:14:06;8.60;;;7.27;;
16922;SDS011;8578;50.938;13.556;2023-08-17T11:16:33;8.07;;;7.27;;
16922;SDS011;8578;50.938;13.556;2023-08-17T11:19:01;9.23;;;7.43;;
16922;SDS011;8578;50.938;13.556;2023-08-17T11:21:28;8.47;;;7.20;;
16922;SDS011;8578;50.938;13.556;2023-08-17T11:23:58;7.73;;;6.93;;
16922;SDS011;8578;50.938;13.556;2023-08-17T11:26:25;8.50;;;6.77;;
16922;SDS011;8578;50.938;13.556;2023-08-17T11:28:54;8.63;;;7.73;;
16922;SDS011;8578;50.938;13.556;2023-08-17T11:31:22;8.43;;;7.53;;
16922;SDS011;8578;50.938;13.556;2023-08-17T11:33:49;9.03;;;6.80;;
16922;SDS011;8578;50.938;13.556;2023-08-17T11:36:22;10.57;;;6.73;;
16922;SDS011;8578;50.938;13.556;2023-08-17T11:38:49;9.23;;;7.00;;
16922;SDS011;8578;50.938;13.556;2023-08-17T11:41:20;11.77;;;7.10;;
16922;SDS011;8578;50.938;13.556;2023-08-17T11:43:47;8.77;;;7.07;;
16922;SDS011;8578;50.938;13.556;2023-08-17T11:46:16;9.77;;;6.97;;
16922;SDS011;8578;50.938;13.556;2023-08-17T11:48:44;8.30;;;7.17;;
16922;SDS011;8578;50.938;13.556;2023-08-17T11:51:12;12.70;;;8.00;;
16922;SDS011;8578;50.938;13.556;2023-08-17T11:53:39;8.47;;;7.00;;
16922;SDS011;8578;50.938;13.556;2023-08-17T11:56:07;9.87;;;7.40;;
16922;SDS011;8578;50.938;13.556;2023-08-17T11:58:41;8.80;;;6.93;;
16922;SDS011;8578;50.938;13.556;2023-08-17T12:01:10;7.37;;;6.60;;
16922;SDS011;8578;50.938;13.556;2023-08-17T12:03:39;7.90;;;7.10;;
16922;SDS011;8578;50.938;13.556;2023-08-17T12:06:07;8.10;;;6.97;;
16922;SDS011;8578;50.938;13.556;2023-08-17T12:08:35;7.70;;;6.70;;
16922;SDS011;8578;50.938;13.556;2023-08-17T12:11:02;7.67;;;6.87;;
16922;SDS011;8578;50.938;13.556;2023-08-17T12:13:31;7.67;;;6.97;;
16922;SDS011;8578;50.938;13.556;2023-08-17T12:16:00;7.90;;;6.63;;
16922;SDS011;8578;50.938;13.556;2023-08-17T12:18:31;8.10;;;7.30;;
16922;SDS011;8578;50.938;13.556;2023-08-17T12:20:59;6.97;;;6.33;;
16922;SDS011;8578;50.938;13.556;2023-08-17T12:23:27;8.27;;;6.70;;
16922;SDS011;8578;50.938;13.556;2023-08-17T12:25:55;9.10;;;6.73;;
16922;SDS011;8578;50.938;13.556;2023-08-17T12:28:23;7.00;;;6.30;;
16922;SDS011;8578;50.938;13.556;2023-08-17T12:30:57;8.73;;;6.67;;
16922;SDS011;8578;50.938;13.556;2023-08-17T12:33:26;6.83;;;6.10;;
16922;SDS011;8578;50.938;13.556;2023-08-17T12:35:54;7.03;;;6.37;;
16922;SDS011;8578;50.938;13.556;2023-08-17T12:38:23;8.27;;;6.30;;
16922;SDS011;8578;50.938;13.556;2023-08-17T12:40:51;8.47;;;6.23;;
16922;SDS011;8578;50.938;13.556;2023-08-17T12:43:19;9.53;;;6.93;;
16922;SDS011;8578;50.938;13.556;2023-08-17T12:45:46;10.47;;;6.13;;
16922;SDS011;8578;50.938;13.556;2023-08-17T12:48:14;8.20;;;6.53;;
16922;SDS011;8578;50.938;13.556;2023-08-17T12:50:43;7.67;;;6.60;;
16922;SDS011;8578;50.938;13.556;2023-08-17T12:53:10;8.77;;;6.20;;
16922;SDS011;8578;50.938;13.556;2023-08-17T12:55:38;6.90;;;6.20;;
16922;SDS011;8578;50.938;13.556;2023-08-17T12:58:07;6.47;;;5.90;;
16922;SDS011;8578;50.938;13.556;2023-08-17T13:00:35;8.40;;;6.20;;
16922;SDS011;8578;50.938;13.556;2023-08-17T13:03:03;6.93;;;5.87;;
16922;SDS011;8578;50.938;13.556;2023-08-17T13:05:32;7.90;;;6.33;;
16922;SDS011;8578;50.938;13.556;2023-08-17T13:08:00;9.63;;;6.17;;
16922;SDS011;8578;50.938;13.556;2023-08-17T13:10:28;7.07;;;6.27;;
16922;SDS011;8578;50.938;13.556;2023-08-17T13:12:56;8.23;;;6.50;;
16922;SDS011;8578;50.938;13.556;2023-08-17T13:15:26;7.73;;;5.97;;
16922;SDS011;8578;50.938;13.556;2023-08-17T13:17:53;7.27;;;5.87;;
16922;SDS011;8578;50.938;13.556;2023-08-17T13:20:21;6.97;;;6.27;;
16922;SDS011;8578;50.938;13.556;2023-08-17T13:22:49;8.90;;;6.13;;
16922;SDS011;8578;50.938;13.556;2023-08-17T13:25:18;6.93;;;6.23;;
16922;SDS011;8578;50.938;13.556;2023-08-17T13:27:46;6.93;;;5.80;;
16922;SDS011;8578;50.938;13.556;2023-08-17T13:30:13;6.60;;;5.50;;
16922;SDS011;8578;50.938;13.556;2023-08-17T13:32:41;10.47;;;6.50;;
16922;SDS011;8578;50.938;13.556;2023-08-17T13:35:12;15.83;;;6.20;;
16922;SDS011;8578;50.938;13.556;2023-08-17T13:37:39;10.03;;;7.20;;
16922;SDS011;8578;50.938;13.556;2023-08-17T13:40:08;8.60;;;6.43;;
16922;SDS011;8578;50.938;13.556;2023-08-17T13:42:38;12.63;;;7.20;;
16922;SDS011;8578;50.938;13.556;2023-08-17T13:45:06;13.07;;;6.93;;
16922;SDS011;8578;50.938;13.556;2023-08-17T13:47:34;10.23;;;7.07;;
16922;SDS011;8578;50.938;13.556;2023-08-17T13:50:03;8.47;;;7.00;;
16922;SDS011;8578;50.938;13.556;2023-08-17T13:52:31;8.27;;;7.17;;
16922;SDS011;8578;50.938;13.556;2023-08-17T13:54:58;9.27;;;7.20;;
16922;SDS011;8578;50.938;13.556;2023-08-17T13:57:26;9.00;;;7.43;;
16922;SDS011;8578;50.938;13.556;2023-08-17T13:59:55;11.57;;;8.20;;
16922;SDS011;8578;50.938;13.556;2023-08-17T14:02:25;8.97;;;7.83;;
16922;SDS011;8578;50.938;13.556;2023-08-17T14:04:56;14.57;;;8.27;;
16922;SDS011;8578;50.938;13.556;2023-08-17T14:07:24;8.20;;;7.13;;
16922;SDS011;8578;50.938;13.556;2023-08-17T14:09:52;12.17;;;7.87;;
16922;SDS011;8578;50.938;13.556;2023-08-17T14:12:34;11.50;;;7.17;;
16922;SDS011;8578;50.938;13.556;2023-08-17T14:15:03;8.53;;;7.27;;
16922;SDS011;8578;50.938;13.556;2023-08-17T14:17:31;7.03;;;6.33;;
16922;SDS011;8578;50.938;13.556;2023-08-17T14:20:01;7.23;;;6.03;;
16922;SDS011;8578;50.938;13.556;2023-08-17T14:22:30;5.70;;;5.20;;
16922;SDS011;8578;50.938;13.556;2023-08-17T14:24:58;10.73;;;5.83;;
16922;SDS011;8578;50.938;13.556;2023-08-17T14:27:26;5.77;;;5.10;;
16922;SDS011;8578;50.938;13.556;2023-08-17T14:29:54;5.30;;;4.80;;
16922;SDS011;8578;50.938;13.556;2023-08-17T14:32:23;5.17;;;4.67;;
16922;SDS011;8578;50.938;13.556;2023-08-17T14:34:51;6.73;;;5.00;;
16922;SDS011;8578;50.938;13.556;2023-08-17T14:37:18;6.27;;;5.47;;
16922;SDS011;8578;50.938;13.556;2023-08-17T14:39:50;6.53;;;5.50;;
16922;SDS011;8578;50.938;13.556;2023-08-17T14:42:18;5.87;;;5.37;;
16922;SDS011;8578;50.938;13.556;2023-08-17T14:44:45;5.77;;;5.20;;